Mocarter, Mississippi
Current Conditions -  °F | °C
As of 8:35 PM on Thursday 20 Nov 2014 (Local Time) from KUTA Reporting Station
Haze Haze  
Wind Chill: 41°   Ceiling: 700
Heat Index: 41°   Visibility: 1mi
Dew Point: 34°   Wind: 3mph
Humidity: 76%   Direction: 60°ENE
Pressure: 30.22"   Gusts: NA
Location:  34.8092°N, 90.3159°W
Report Text: KUTA 210235Z AUTO 06003KT 1SM HZ VV007 05/01 A3022 RMK AO2 VIS 1/2V5
Loading
Personal Weather Stations






























Interactive Weather Map New forecast layout! Learn more

10-Day Weather Forecast

Advertisements
Track Severe Weather on mobile